sensor_id;sensor_type;location;lat;lon;timestamp;pressure;altitude;pressure_sealevel;temperature;humidity
68508;BME280;55510;49.560;19.090;2023-03-14T00:01:31;95252.69;;;7.75;58.87
68508;BME280;55510;49.560;19.090;2023-03-14T00:04:31;95250.09;;;7.85;58.44
68508;BME280;55510;49.560;19.090;2023-03-14T00:07:34;95255.75;;;7.94;58.71
68508;BME280;55510;49.560;19.090;2023-03-14T00:10:36;95268.47;;;7.97;58.58
68508;BME280;55510;49.560;19.090;2023-03-14T00:13:38;95263.94;;;7.92;58.70
68508;BME280;55510;49.560;19.090;2023-03-14T00:16:39;95250.47;;;7.99;58.36
68508;BME280;55510;49.560;19.090;2023-03-14T00:19:40;95247.97;;;7.82;58.39
68508;BME280;55510;49.560;19.090;2023-03-14T00:22:41;95244.78;;;7.80;59.05
68508;BME280;55510;49.560;19.090;2023-03-14T00:25:42;95235.72;;;7.71;59.62
68508;BME280;55510;49.560;19.090;2023-03-14T00:28:44;95227.47;;;7.67;59.44
68508;BME280;55510;49.560;19.090;2023-03-14T00:31:44;95220.03;;;7.64;60.14
68508;BME280;55510;49.560;19.090;2023-03-14T00:34:45;95218.16;;;7.59;60.11
68508;BME280;55510;49.560;19.090;2023-03-14T00:37:46;95207.53;;;7.54;60.50
68508;BME280;55510;49.560;19.090;2023-03-14T00:40:46;95208.81;;;7.51;60.64
68508;BME280;55510;49.560;19.090;2023-03-14T00:43:47;95195.28;;;7.48;60.75
68508;BME280;55510;49.560;19.090;2023-03-14T00:46:48;95185.47;;;7.43;60.90
68508;BME280;55510;49.560;19.090;2023-03-14T00:49:49;95177.44;;;7.33;61.25
68508;BME280;55510;49.560;19.090;2023-03-14T00:52:50;95183.44;;;7.23;61.40
68508;BME280;55510;49.560;19.090;2023-03-14T00:55:50;95173.94;;;7.27;61.82
68508;BME280;55510;49.560;19.090;2023-03-14T00:58:55;95151.97;;;7.26;61.70
68508;BME280;55510;49.560;19.090;2023-03-14T01:01:56;95139.25;;;7.23;61.85
68508;BME280;55510;49.560;19.090;2023-03-14T01:04:57;95138.88;;;7.42;61.23
68508;BME280;55510;49.560;19.090;2023-03-14T01:07:57;95120.06;;;7.44;61.07
68508;BME280;55510;49.560;19.090;2023-03-14T01:10:58;95103.09;;;7.39;60.99
68508;BME280;55510;49.560;19.090;2023-03-14T01:13:59;95095.44;;;7.38;61.17
68508;BME280;55510;49.560;19.090;2023-03-14T01:17:00;95079.25;;;7.34;61.20
68508;BME280;55510;49.560;19.090;2023-03-14T01:20:01;95080.28;;;7.28;61.37
68508;BME280;55510;49.560;19.090;2023-03-14T01:23:02;95071.81;;;7.26;61.72
68508;BME280;55510;49.560;19.090;2023-03-14T01:26:03;95049.06;;;7.30;61.57
68508;BME280;55510;49.560;19.090;2023-03-14T01:29:04;95060.59;;;7.14;61.65
68508;BME280;55510;49.560;19.090;2023-03-14T01:32:04;95059.63;;;6.87;62.68
68508;BME280;55510;49.560;19.090;2023-03-14T01:35:06;95052.25;;;6.62;63.89
68508;BME280;55510;49.560;19.090;2023-03-14T01:38:07;95033.13;;;6.49;65.10
68508;BME280;55510;49.560;19.090;2023-03-14T01:41:12;95027.19;;;6.37;65.48
68508;BME280;55510;49.560;19.090;2023-03-14T01:44:13;95015.88;;;6.42;65.63
68508;BME280;55510;49.560;19.090;2023-03-14T01:47:14;95011.72;;;6.84;64.00
68508;BME280;55510;49.560;19.090;2023-03-14T01:50:15;94995.97;;;7.04;63.31
68508;BME280;55510;49.560;19.090;2023-03-14T01:53:15;95007.16;;;7.11;62.07
68508;BME280;55510;49.560;19.090;2023-03-14T01:56:18;94995.34;;;6.87;62.89
68508;BME280;55510;49.560;19.090;2023-03-14T01:59:20;94992.69;;;6.87;63.33
68508;BME280;55510;49.560;19.090;2023-03-14T02:02:21;94975.31;;;6.96;63.19
68508;BME280;55510;49.560;19.090;2023-03-14T02:05:25;94983.09;;;7.18;62.13
68508;BME280;55510;49.560;19.090;2023-03-14T02:08:27;94969.38;;;7.26;61.90
68508;BME280;55510;49.560;19.090;2023-03-14T02:11:28;94981.38;;;7.45;61.29
68508;BME280;55510;49.560;19.090;2023-03-14T02:14:34;94972.88;;;7.37;60.89
68508;BME280;55510;49.560;19.090;2023-03-14T02:17:36;94973.72;;;6.95;62.31
68508;BME280;55510;49.560;19.090;2023-03-14T02:20:56;94966.50;;;6.47;64.35
68508;BME280;55510;49.560;19.090;2023-03-14T02:24:09;94977.50;;;6.34;65.05
68508;BME280;55510;49.560;19.090;2023-03-14T02:27:16;94969.41;;;6.18;65.37
68508;BME280;55510;49.560;19.090;2023-03-14T02:30:21;94952.03;;;6.22;65.95
68508;BME280;55510;49.560;19.090;2023-03-14T02:33:22;94950.84;;;6.08;66.01
68508;BME280;55510;49.560;19.090;2023-03-14T02:36:23;94954.91;;;5.93;66.82
68508;BME280;55510;49.560;19.090;2023-03-14T02:39:29;94950.72;;;5.98;67.29
68508;BME280;55510;49.560;19.090;2023-03-14T02:42:32;94942.47;;;6.49;66.00
68508;BME280;55510;49.560;19.090;2023-03-14T02:45:39;94946.53;;;7.05;63.50
68508;BME280;55510;49.560;19.090;2023-03-14T02:48:42;94937.38;;;7.28;62.29
68508;BME280;55510;49.560;19.090;2023-03-14T02:51:45;94935.22;;;7.20;62.04
68508;BME280;55510;49.560;19.090;2023-03-14T02:54:46;94950.00;;;7.10;61.89
68508;BME280;55510;49.560;19.090;2023-03-14T02:57:47;94928.06;;;6.67;63.36
68508;BME280;55510;49.560;19.090;2023-03-14T03:00:48;94950.38;;;6.16;64.48
68508;BME280;55510;49.560;19.090;2023-03-14T03:03:49;94955.13;;;5.64;66.68
68508;BME280;55510;49.560;19.090;2023-03-14T03:06:49;94955.50;;;5.06;68.92
68508;BME280;55510;49.560;19.090;2023-03-14T03:09:50;94949.72;;;4.70;70.36
68508;BME280;55510;49.560;19.090;2023-03-14T03:12:51;94957.16;;;4.39;71.65
68508;BME280;55510;49.560;19.090;2023-03-14T03:15:52;94964.66;;;4.13;73.19
68508;BME280;55510;49.560;19.090;2023-03-14T03:18:53;94973.88;;;3.99;75.08
68508;BME280;55510;49.560;19.090;2023-03-14T03:21:53;94973.97;;;3.75;76.88
68508;BME280;55510;49.560;19.090;2023-03-14T03:24:54;94983.28;;;3.66;77.03
68508;BME280;55510;49.560;19.090;2023-03-14T03:27:55;94980.00;;;3.58;77.93
68508;BME280;55510;49.560;19.090;2023-03-14T03:30:55;94965.47;;;3.56;77.98
68508;BME280;55510;49.560;19.090;2023-03-14T03:33:56;94944.88;;;3.53;78.07
68508;BME280;55510;49.560;19.090;2023-03-14T03:36:58;94944.28;;;3.62;80.18
68508;BME280;55510;49.560;19.090;2023-03-14T03:39:58;94953.66;;;3.87;79.68
68508;BME280;55510;49.560;19.090;2023-03-14T03:42:59;94951.22;;;3.98;78.42
68508;BME280;55510;49.560;19.090;2023-03-14T03:46:04;94934.41;;;3.99;77.73
68508;BME280;55510;49.560;19.090;2023-03-14T03:49:05;94921.53;;;4.02;77.74
68508;BME280;55510;49.560;19.090;2023-03-14T03:52:06;94910.69;;;4.50;77.80
68508;BME280;55510;49.560;19.090;2023-03-14T03:55:07;94896.81;;;4.94;75.83
68508;BME280;55510;49.560;19.090;2023-03-14T03:58:08;94885.41;;;5.60;72.79
68508;BME280;55510;49.560;19.090;2023-03-14T04:01:09;94877.03;;;6.23;69.60
68508;BME280;55510;49.560;19.090;2023-03-14T04:04:11;94880.41;;;6.57;68.44
68508;BME280;55510;49.560;19.090;2023-03-14T04:07:11;94873.84;;;7.13;65.15
68508;BME280;55510;49.560;19.090;2023-03-14T04:10:14;94862.25;;;7.34;64.23
68508;BME280;55510;49.560;19.090;2023-03-14T04:13:15;94870.78;;;7.52;63.40
68508;BME280;55510;49.560;19.090;2023-03-14T04:16:23;94877.69;;;7.79;61.93
68508;BME280;55510;49.560;19.090;2023-03-14T04:19:24;94870.28;;;7.81;61.98
68508;BME280;55510;49.560;19.090;2023-03-14T04:22:25;94876.66;;;7.90;61.04
68508;BME280;55510;49.560;19.090;2023-03-14T04:25:26;94881.41;;;7.88;60.79
68508;BME280;55510;49.560;19.090;2023-03-14T04:28:26;94873.22;;;7.90;60.77
68508;BME280;55510;49.560;19.090;2023-03-14T04:31:28;94881.69;;;7.87;60.91
68508;BME280;55510;49.560;19.090;2023-03-14T04:34:28;94884.06;;;7.93;60.68
68508;BME280;55510;49.560;19.090;2023-03-14T04:37:29;94885.41;;;7.91;60.73
68508;BME280;55510;49.560;19.090;2023-03-14T04:40:29;94869.75;;;7.94;60.36
68508;BME280;55510;49.560;19.090;2023-03-14T04:43:30;94868.22;;;8.04;59.34
68508;BME280;55510;49.560;19.090;2023-03-14T04:46:31;94876.69;;;7.95;60.15
68508;BME280;55510;49.560;19.090;2023-03-14T04:49:32;94870.81;;;7.93;60.09
68508;BME280;55510;49.560;19.090;2023-03-14T04:52:32;94854.69;;;7.90;59.98
68508;BME280;55510;49.560;19.090;2023-03-14T04:55:33;94859.16;;;7.79;60.08
68508;BME280;55510;49.560;19.090;2023-03-14T04:58:35;94861.03;;;7.78;60.07
68508;BME280;55510;49.560;19.090;2023-03-14T05:01:35;94862.34;;;7.81;60.03
68508;BME280;55510;49.560;19.090;2023-03-14T05:04:36;94854.16;;;7.77;60.04
68508;BME280;55510;49.560;19.090;2023-03-14T05:07:37;94854.69;;;7.90;59.84
68508;BME280;55510;49.560;19.090;2023-03-14T05:10:37;94835.34;;;7.89;59.66
68508;BME280;55510;49.560;19.090;2023-03-14T05:13:39;94830.03;;;7.89;59.67
68508;BME280;55510;49.560;19.090;2023-03-14T05:16:40;94824.75;;;7.89;59.56
68508;BME280;55510;49.560;19.090;2023-03-14T05:19:41;94824.75;;;7.89;59.59
68508;BME280;55510;49.560;19.090;2023-03-14T05:22:41;94813.63;;;8.03;58.70
68508;BME280;55510;49.560;19.090;2023-03-14T05:25:43;94812.56;;;7.98;59.18
68508;BME280;55510;49.560;19.090;2023-03-14T05:28:44;94813.09;;;8.06;58.88
68508;BME280;55510;49.560;19.090;2023-03-14T14:35:41;94790.06;;;9.53;71.76
68508;BME280;55510;49.560;19.090;2023-03-14T14:38:42;94803.06;;;9.55;71.94
68508;BME280;55510;49.560;19.090;2023-03-14T14:41:50;94800.41;;;9.55;72.48
68508;BME280;55510;49.560;19.090;2023-03-14T14:44:52;94807.84;;;9.53;72.30
68508;BME280;55510;49.560;19.090;2023-03-14T14:48:09;94819.00;;;9.55;72.73
68508;BME280;55510;49.560;19.090;2023-03-14T14:51:10;94823.25;;;9.51;73.93
68508;BME280;55510;49.560;19.090;2023-03-14T14:54:16;94829.91;;;9.48;74.29
68508;BME280;55510;49.560;19.090;2023-03-14T14:57:31;94832.34;;;9.45;75.03
68508;BME280;55510;49.560;19.090;2023-03-14T15:00:34;94827.56;;;9.41;75.92
68508;BME280;55510;49.560;19.090;2023-03-14T15:03:35;94826.56;;;9.32;76.66
68508;BME280;55510;49.560;19.090;2023-03-14T15:06:36;94826.81;;;9.31;77.03
68508;BME280;55510;49.560;19.090;2023-03-14T15:09:37;94832.41;;;9.24;77.75
68508;BME280;55510;49.560;19.090;2023-03-14T15:12:37;94840.97;;;9.16;78.89
68508;BME280;55510;49.560;19.090;2023-03-14T15:15:38;94836.47;;;9.11;79.64
68508;BME280;55510;49.560;19.090;2023-03-14T15:18:39;94839.41;;;9.09;80.45
68508;BME280;55510;49.560;19.090;2023-03-14T15:21:40;94846.06;;;9.02;80.61
68508;BME280;55510;49.560;19.090;2023-03-14T15:24:41;94838.38;;;9.00;81.46
68508;BME280;55510;49.560;19.090;2023-03-14T15:27:42;94841.56;;;8.97;81.92
68508;BME280;55510;49.560;19.090;2023-03-14T15:30:43;94846.34;;;8.95;82.75
68508;BME280;55510;49.560;19.090;2023-03-14T15:33:44;94838.44;;;8.84;84.07
68508;BME280;55510;49.560;19.090;2023-03-14T15:36:45;94837.38;;;8.75;84.62
68508;BME280;55510;49.560;19.090;2023-03-14T15:39:48;94828.09;;;8.78;85.92
68508;BME280;55510;49.560;19.090;2023-03-14T15:42:49;94843.75;;;8.74;86.30
68508;BME280;55510;49.560;19.090;2023-03-14T15:45:50;94844.56;;;8.75;87.03
68508;BME280;55510;49.560;19.090;2023-03-14T15:48:51;94849.91;;;8.64;87.57
68508;BME280;55510;49.560;19.090;2023-03-14T15:51:52;94850.69;;;8.54;88.30
68508;BME280;55510;49.560;19.090;2023-03-14T15:54:56;94857.84;;;8.49;88.76
68508;BME280;55510;49.560;19.090;2023-03-14T15:57:57;94865.53;;;8.45;89.70
68508;BME280;55510;49.560;19.090;2023-03-14T16:01:00;94861.84;;;8.51;90.80
68508;BME280;55510;49.560;19.090;2023-03-14T16:04:01;94862.09;;;8.39;92.12
68508;BME280;55510;49.560;19.090;2023-03-14T16:07:03;94855.47;;;8.32;93.28
68508;BME280;55510;49.560;19.090;2023-03-14T16:10:04;94865.00;;;8.33;93.29
68508;BME280;55510;49.560;19.090;2023-03-14T16:13:05;94857.88;;;8.23;93.75
68508;BME280;55510;49.560;19.090;2023-03-14T16:16:07;94863.44;;;8.21;93.90
68508;BME280;55510;49.560;19.090;2023-03-14T16:19:08;94865.03;;;8.17;94.55
68508;BME280;55510;49.560;19.090;2023-03-14T16:22:09;94869.25;;;8.08;95.63
68508;BME280;55510;49.560;19.090;2023-03-14T16:25:10;94872.69;;;8.03;95.86
68508;BME280;55510;49.560;19.090;2023-03-14T16:28:11;94875.34;;;7.98;96.41
68508;BME280;55510;49.560;19.090;2023-03-14T16:31:15;94876.16;;;7.98;96.39
68508;BME280;55510;49.560;19.090;2023-03-14T16:34:16;94881.94;;;7.90;96.55
68508;BME280;55510;49.560;19.090;2023-03-14T16:37:17;94875.59;;;7.91;96.24
68508;BME280;55510;49.560;19.090;2023-03-14T16:40:18;94877.19;;;7.92;96.53
68508;BME280;55510;49.560;19.090;2023-03-14T16:43:18;94867.41;;;7.82;97.18
68508;BME280;55510;49.560;19.090;2023-03-14T16:46:19;94863.41;;;7.75;98.33
68508;BME280;55510;49.560;19.090;2023-03-14T16:49:21;94863.66;;;7.73;98.36
68508;BME280;55510;49.560;19.090;2023-03-14T16:52:22;94849.63;;;7.73;97.67
68508;BME280;55510;49.560;19.090;2023-03-14T16:55:23;94853.31;;;7.61;97.82
68508;BME280;55510;49.560;19.090;2023-03-14T16:58:24;94828.44;;;7.62;96.14
68508;BME280;55510;49.560;19.090;2023-03-14T17:01:25;94827.38;;;7.53;95.98
68508;BME280;55510;49.560;19.090;2023-03-14T17:04:26;94823.38;;;7.55;94.35
68508;BME280;55510;49.560;19.090;2023-03-14T17:07:26;94841.13;;;7.55;94.27
68508;BME280;55510;49.560;19.090;2023-03-14T17:10:27;94844.03;;;7.43;95.00
68508;BME280;55510;49.560;19.090;2023-03-14T17:13:28;94838.97;;;7.36;94.44
68508;BME280;55510;49.560;19.090;2023-03-14T17:16:29;94834.72;;;7.30;95.01
68508;BME280;55510;49.560;19.090;2023-03-14T17:19:30;94822.56;;;7.34;94.90
68508;BME280;55510;49.560;19.090;2023-03-14T17:22:36;94837.34;;;7.25;95.24
68508;BME280;55510;49.560;19.090;2023-03-14T17:25:37;94850.03;;;7.18;95.57
68508;BME280;55510;49.560;19.090;2023-03-14T17:28:38;94845.53;;;7.23;95.47
68508;BME280;55510;49.560;19.090;2023-03-14T17:31:39;94844.75;;;7.18;95.76
68508;BME280;55510;49.560;19.090;2023-03-14T17:34:40;94846.03;;;7.15;96.46
68508;BME280;55510;49.560;19.090;2023-03-14T17:37:40;94841.03;;;7.14;96.82
68508;BME280;55510;49.560;19.090;2023-03-14T17:40:46;94837.81;;;7.06;96.63
68508;BME280;55510;49.560;19.090;2023-03-14T17:43:47;94844.16;;;7.05;96.96
68508;BME280;55510;49.560;19.090;2023-03-14T17:46:48;94849.44;;;7.05;97.02
68508;BME280;55510;49.560;19.090;2023-03-14T17:49:49;94851.56;;;7.03;96.82
68508;BME280;55510;49.560;19.090;2023-03-14T17:52:49;94861.06;;;7.04;96.99
68508;BME280;55510;49.560;19.090;2023-03-14T17:55:50;94869.53;;;7.06;96.77
68508;BME280;55510;49.560;19.090;2023-03-14T17:58:51;94866.38;;;7.04;97.13
68508;BME280;55510;49.560;19.090;2023-03-14T18:01:53;94860.84;;;7.06;96.76
68508;BME280;55510;49.560;19.090;2023-03-14T18:04:54;94854.78;;;7.16;95.80
68508;BME280;55510;49.560;19.090;2023-03-14T18:07:55;94855.56;;;7.16;95.16
68508;BME280;55510;49.560;19.090;2023-03-14T18:10:55;94851.63;;;7.14;94.93
68508;BME280;55510;49.560;19.090;2023-03-14T18:13:56;94860.06;;;7.10;94.92
68508;BME280;55510;49.560;19.090;2023-03-14T18:16:57;94860.84;;;7.06;95.48
68508;BME280;55510;49.560;19.090;2023-03-14T18:19:58;94861.88;;;7.00;95.91
68508;BME280;55510;49.560;19.090;2023-03-14T18:22:58;94864.22;;;6.96;96.17
68508;BME280;55510;49.560;19.090;2023-03-14T18:26:01;94875.31;;;6.93;96.31
68508;BME280;55510;49.560;19.090;2023-03-14T18:29:02;94876.09;;;6.88;96.41
68508;BME280;55510;49.560;19.090;2023-03-14T18:32:02;94884.81;;;6.89;96.11
68508;BME280;55510;49.560;19.090;2023-03-14T18:35:03;94882.16;;;6.84;96.27
68508;BME280;55510;49.560;19.090;2023-03-14T18:38:04;94883.19;;;6.82;96.25
68508;BME280;55510;49.560;19.090;2023-03-14T18:41:06;94890.81;;;6.74;96.27
68508;BME280;55510;49.560;19.090;2023-03-14T18:44:08;94894.50;;;6.73;96.38
68508;BME280;55510;49.560;19.090;2023-03-14T18:47:09;94901.13;;;6.70;96.25
68508;BME280;55510;49.560;19.090;2023-03-14T18:50:10;94898.66;;;6.58;96.38
68508;BME280;55510;49.560;19.090;2023-03-14T18:53:11;94907.84;;;6.50;96.54
68508;BME280;55510;49.560;19.090;2023-03-14T18:56:12;94913.38;;;6.44;96.94
68508;BME280;55510;49.560;19.090;2023-03-14T18:59:16;94937.59;;;6.35;97.29
68508;BME280;55510;49.560;19.090;2023-03-14T19:02:17;94945.25;;;6.32;97.12
68508;BME280;55510;49.560;19.090;2023-03-14T19:05:18;94945.72;;;6.23;97.17
68508;BME280;55510;49.560;19.090;2023-03-14T19:08:19;94957.25;;;6.17;97.37
68508;BME280;55510;49.560;19.090;2023-03-14T19:11:22;94958.75;;;6.08;98.06
68508;BME280;55510;49.560;19.090;2023-03-14T19:14:25;94978.28;;;6.07;98.67
68508;BME280;55510;49.560;19.090;2023-03-14T19:17:27;94985.66;;;6.05;98.80
